Time;durP1;ratioP1;P1;durP2;ratioP2;P2;SDS_P1;SDS_P2;PMS_P1;PMS_P2;Temp;Humidity;BMP_temperature;BMP_pressure;BME280_temperature;BME280_humidity;BME280_pressure;Samples;Min_cycle;Max_cycle;Signal;HPM_P1;HPM_P2
2022/03/08 00:01:38;;;;;;;;;;;;;;;;;;5016329;28;19987;-25
2022/03/08 00:04:04;;;;;;;;;;;;;;;;;;5016062;28;19921;-24
2022/03/08 00:06:30;;;;;;;;;;;;;;;;;;4998938;28;19967;-24
2022/03/08 00:08:56;;;;;;;;;;;;;;;;;;5016340;28;19917;-24
2022/03/08 00:11:24;;;;;;;;;;;;;;;;;;5016069;28;19924;-24
2022/03/08 00:13:51;;;;;;;;;;;;;;;;;;4998795;28;19921;-25
2022/03/08 00:16:17;;;;;;;;;;;;;;;;;;5016244;28;20233;-25
2022/03/08 00:18:48;;;;;;;;;;;;;;;;;;5015992;28;20309;-25
2022/03/08 00:21:16;;;;;;;;;;;;;;;;;;5015835;28;19913;-24
2022/03/08 00:23:44;;;;;;;;;;;;;;;;;;5016233;28;19976;-25
2022/03/08 00:26:10;;;;;;;;;;;;;;;;;;5016096;28;19917;-24
2022/03/08 00:28:36;;;;;;;;;;;;;;;;;;5015652;28;19913;-24
2022/03/08 00:31:02;;;;;;;;;;;;;;;;;;5015778;28;19913;-24
2022/03/08 00:33:29;;;;;;;;;;;;;;;;;;5016053;28;19918;-25
2022/03/08 00:35:55;;;;;;;;;;;;;;;;;;5015716;28;20241;-24
2022/03/08 00:38:21;;;;;;;;;;;;;;;;;;5015539;28;19921;-24
2022/03/08 00:40:49;;;;;;;;;;;;;;;;;;5015593;28;19967;-24
2022/03/08 00:43:15;;;;;;;;;;;;;;;;;;5015821;28;20028;-24
2022/03/08 00:45:41;;;;;;;;;;;;;;;;;;5015564;28;19914;-24
2022/03/08 00:48:07;;;;;;;;;;;;;;;;;;5015450;28;19922;-24
2022/03/08 00:50:34;;;;;;;;;;;;;;;;;;5015289;28;20349;-23
2022/03/08 00:53:00;;;;;;;;;;;;;;;;;;5015443;28;20237;-23
2022/03/08 00:55:26;;;;;;;;;;;;;;;;;;4997972;28;20004;-23
2022/03/08 00:57:54;;;;;;;;;;;;;;;;;;5015308;28;19909;-23
2022/03/08 01:00:21;;;;;;;;;;;;;;;;;;5015341;28;19971;-23
2022/03/08 01:02:48;;;;;;;;;;;;;;;;;;4997740;28;20016;-23
2022/03/08 01:05:15;;;;;;;;;;;;;;;;;;5015708;28;19918;-23
2022/03/08 01:07:41;;;;;;;;;;;;;;;;;;5015037;28;19913;-23
2022/03/08 01:10:07;;;;;;;;;;;;;;;;;;5015393;28;19917;-23
2022/03/08 01:12:33;;;;;;;;;;;;;;;;;;5015387;28;19972;-23
2022/03/08 01:15:01;;;;;;;;;;;;;;;;;;5015180;28;19925;-23
2022/03/08 01:17:27;;;;;;;;;;;;;;;;;;4997750;28;20354;-23
2022/03/08 01:19:53;;;;;;;;;;;;;;;;;;5015634;28;20368;-23
2022/03/08 01:22:20;;;;;;;;;;;;;;;;;;5015052;28;19914;-23
2022/03/08 01:24:47;;;;;;;;;;;;;;;;;;5015272;28;19918;-23
2022/03/08 01:27:13;;;;;;;;;;;;;;;;;;4997548;28;20229;-23
2022/03/08 01:29:39;;;;;;;;;;;;;;;;;;4997653;28;20308;-23
2022/03/08 01:32:05;;;;;;;;;;;;;;;;;;5015264;28;19909;-23
2022/03/08 01:34:31;;;;;;;;;;;;;;;;;;4997659;28;19909;-23
2022/03/08 01:36:57;;;;;;;;;;;;;;;;;;5015060;28;19944;-23
2022/03/08 01:39:23;;;;;;;;;;;;;;;;;;5015183;28;19969;-23
2022/03/08 01:41:50;;;;;;;;;;;;;;;;;;5014765;28;19979;-23
2022/03/08 01:44:16;;;;;;;;;;;;;;;;;;5015084;28;19910;-23
2022/03/08 01:46:44;;;;;;;;;;;;;;;;;;5014807;28;20304;-23
2022/03/08 01:49:12;;;;;;;;;;;;;;;;;;4997328;28;19967;-23
2022/03/08 01:51:39;;;;;;;;;;;;;;;;;;4997362;28;19913;-23
2022/03/08 01:54:05;;;;;;;;;;;;;;;;;;5014620;28;20424;-23
2022/03/08 01:56:33;;;;;;;;;;;;;;;;;;5014967;28;20007;-23
2022/03/08 01:58:59;;;;;;;;;;;;;;;;;;5014700;28;20025;-23
2022/03/08 02:01:26;;;;;;;;;;;;;;;;;;5014953;28;19913;-24
2022/03/08 02:03:54;;;;;;;;;;;;;;;;;;5017615;28;20348;-23
2022/03/08 02:06:20;;;;;;;;;;;;;;;;;;5018343;28;20352;-30
2022/03/08 02:08:47;;;;;;;;;;;;;;;;;;5018211;28;20008;-23
2022/03/08 02:11:13;;;;;;;;;;;;;;;;;;5018583;28;19924;-23
2022/03/08 02:13:40;;;;;;;;;;;;;;;;;;5018293;28;19921;-23
2022/03/08 02:16:07;;;;;;;;;;;;;;;;;;5018109;28;20353;-24
2022/03/08 02:18:33;;;;;;;;;;;;;;;;;;5018144;28;19909;-24
2022/03/08 02:21:00;;;;;;;;;;;;;;;;;;5018200;28;20004;-24
2022/03/08 02:23:28;;;;;;;;;;;;;;;;;;5018156;28;19914;-23
2022/03/08 02:25:54;;;;;;;;;;;;;;;;;;5018375;28;19932;-24
2022/03/08 02:28:21;;;;;;;;;;;;;;;;;;5017819;28;19925;-23
2022/03/08 02:30:47;;;;;;;;;;;;;;;;;;5000706;28;20455;-24
2022/03/08 02:33:14;;;;;;;;;;;;;;;;;;5000865;28;19999;-24
2022/03/08 02:35:40;;;;;;;;;;;;;;;;;;5017904;28;19949;-23
2022/03/08 02:38:06;;;;;;;;;;;;;;;;;;5018095;28;20252;-24
2022/03/08 02:40:33;;;;;;;;;;;;;;;;;;5018104;28;19955;-24
2022/03/08 02:42:59;;;;;;;;;;;;;;;;;;5017800;28;19924;-24
2022/03/08 02:45:25;;;;;;;;;;;;;;;;;;5017936;28;20008;-24
2022/03/08 02:47:52;;;;;;;;;;;;;;;;;;5017536;28;19968;-23
2022/03/08 02:50:18;;;;;;;;;;;;;;;;;;5017900;28;20372;-23
2022/03/08 02:52:46;;;;;;;;;;;;;;;;;;5017518;28;20349;-23
2022/03/08 02:55:13;;;;;;;;;;;;;;;;;;5017790;28;19975;-23
2022/03/08 02:57:40;;;;;;;;;;;;;;;;;;5017340;28;19952;-24
2022/03/08 03:00:07;;;;;;;;;;;;;;;;;;5017701;28;20284;-24
2022/03/08 03:02:34;;;;;;;;;;;;;;;;;;5017313;28;19932;-23
2022/03/08 03:05:00;;;;;;;;;;;;;;;;;;5017585;28;19909;-23
2022/03/08 03:07:26;;;;;;;;;;;;;;;;;;5017104;28;20300;-24
2022/03/08 03:09:52;;;;;;;;;;;;;;;;;;5017244;28;20264;-23
2022/03/08 03:12:19;;;;;;;;;;;;;;;;;;5017509;28;19914;-23
2022/03/08 03:14:45;;;;;;;;;;;;;;;;;;5016788;28;20124;-24
2022/03/08 03:17:12;;;;;;;;;;;;;;;;;;5017382;28;19972;-24
2022/03/08 03:19:39;;;;;;;;;;;;;;;;;;5017157;28;20307;-24
2022/03/08 03:22:05;;;;;;;;;;;;;;;;;;5016989;28;19914;-23
2022/03/08 03:24:32;;;;;;;;;;;;;;;;;;5016994;28;20288;-23
2022/03/08 03:27:00;;;;;;;;;;;;;;;;;;5016789;28;20000;-24
2022/03/08 03:29:26;;;;;;;;;;;;;;;;;;5016945;28;19921;-23
2022/03/08 03:31:53;;;;;;;;;;;;;;;;;;4999531;28;19913;-26
2022/03/08 03:34:19;;;;;;;;;;;;;;;;;;4999467;28;19910;-23
2022/03/08 03:36:45;;;;;;;;;;;;;;;;;;5016727;28;20300;-23
2022/03/08 03:39:13;;;;;;;;;;;;;;;;;;5016977;28;20244;-23
2022/03/08 03:41:39;;;;;;;;;;;;;;;;;;5016585;28;19948;-24
2022/03/08 03:44:06;;;;;;;;;;;;;;;;;;5016661;28;19909;-26
2022/03/08 03:46:32;;;;;;;;;;;;;;;;;;4999158;28;19951;-24
2022/03/08 03:48:58;;;;;;;;;;;;;;;;;;5016429;28;19913;-23
2022/03/08 03:51:24;;;;;;;;;;;;;;;;;;5016432;28;19921;-23
2022/03/08 03:53:50;;;;;;;;;;;;;;;;;;5016432;28;19909;-24
2022/03/08 03:56:17;;;;;;;;;;;;;;;;;;5016357;28;19914;-23
2022/03/08 03:58:44;;;;;;;;;;;;;;;;;;5016544;28;19914;-24
2022/03/08 04:01:10;;;;;;;;;;;;;;;;;;5016322;28;20352;-24
2022/03/08 04:03:38;;;;;;;;;;;;;;;;;;4998802;28;19921;-23
2022/03/08 04:06:04;;;;;;;;;;;;;;;;;;5016449;28;19914;-24
2022/03/08 04:08:30;;;;;;;;;;;;;;;;;;5016060;28;19913;-23
2022/03/08 04:10:58;;;;;;;;;;;;;;;;;;5016332;28;19913;-24
2022/03/08 04:13:24;;;;;;;;;;;;;;;;;;5016020;28;19996;-23
2022/03/08 04:15:52;;;;;;;;;;;;;;;;;;5016241;28;19913;-24
2022/03/08 04:18:18;;;;;;;;;;;;;;;;;;5015888;28;20329;-24
2022/03/08 04:20:44;;;;;;;;;;;;;;;;;;5016171;28;19913;-23
2022/03/08 04:23:12;;;;;;;;;;;;;;;;;;5015889;28;19909;-23
2022/03/08 04:25:38;;;;;;;;;;;;;;;;;;5015317;28;19914;-23
2022/03/08 04:28:04;;;;;;;;;;;;;;;;;;5015710;28;20305;-24
2022/03/08 04:30:30;;;;;;;;;;;;;;;;;;5015700;28;20422;-23
2022/03/08 04:32:56;;;;;;;;;;;;;;;;;;5015892;28;19909;-23
2022/03/08 04:35:23;;;;;;;;;;;;;;;;;;5015645;28;19910;-24
2022/03/08 04:37:49;;;;;;;;;;;;;;;;;;5015562;28;20336;-23
2022/03/08 04:40:16;;;;;;;;;;;;;;;;;;4998268;28;20380;-24
2022/03/08 04:42:42;;;;;;;;;;;;;;;;;;5015672;28;19995;-24
2022/03/08 04:45:08;;;;;;;;;;;;;;;;;;5015345;28;19909;-23
2022/03/08 04:47:37;;;;;;;;;;;;;;;;;;5015275;28;19918;-26
2022/03/08 04:50:03;;;;;;;;;;;;;;;;;;4998024;28;19914;-26
2022/03/08 04:52:29;;;;;;;;;;;;;;;;;;5015450;28;19910;-25
2022/03/08 04:54:55;;;;;;;;;;;;;;;;;;4997677;28;19952;-25
2022/03/08 04:57:21;;;;;;;;;;;;;;;;;;5015264;28;19910;-26
2022/03/08 04:59:49;;;;;;;;;;;;;;;;;;5015186;28;19996;-25
2022/03/08 05:02:15;;;;;;;;;;;;;;;;;;4994177;28;19944;-25
2022/03/08 05:04:41;;;;;;;;;;;;;;;;;;4995460;28;19914;-25
2022/03/08 05:07:09;;;;;;;;;;;;;;;;;;4995206;28;20308;-25
2022/03/08 05:09:35;;;;;;;;;;;;;;;;;;4995392;28;19913;-25
2022/03/08 05:12:03;;;;;;;;;;;;;;;;;;4994849;28;20348;-25
2022/03/08 05:14:29;;;;;;;;;;;;;;;;;;4995639;28;19914;-25
2022/03/08 05:16:55;;;;;;;;;;;;;;;;;;4994683;28;19913;-26
2022/03/08 05:19:21;;;;;;;;;;;;;;;;;;4994659;28;19920;-25
2022/03/08 05:21:47;;;;;;;;;;;;;;;;;;4994924;28;19965;-26
2022/03/08 05:24:15;;;;;;;;;;;;;;;;;;4994827;28;19914;-25
2022/03/08 05:26:41;;;;;;;;;;;;;;;;;;4995383;28;19964;-25
2022/03/08 05:29:07;;;;;;;;;;;;;;;;;;4994326;28;20273;-25
2022/03/08 05:31:33;;;;;;;;;;;;;;;;;;4994634;28;20001;-24
2022/03/08 05:33:59;;;;;;;;;;;;;;;;;;4994930;28;19968;-25
2022/03/08 05:36:27;;;;;;;;;;;;;;;;;;4995788;28;19944;-25
2022/03/08 05:38:54;;;;;;;;;;;;;;;;;;4998867;28;20013;-25
2022/03/08 05:41:20;;;;;;;;;;;;;;;;;;4998811;28;19925;-25
2022/03/08 05:43:46;;;;;;;;;;;;;;;;;;4997861;28;20234;-25
2022/03/08 05:46:14;;;;;;;;;;;;;;;;;;4997890;28;20008;-25
2022/03/08 05:48:41;;;;;;;;;;;;;;;;;;4998687;28;20297;-25
2022/03/08 05:51:07;;;;;;;;;;;;;;;;;;4998985;28;19918;-25
2022/03/08 05:53:33;;;;;;;;;;;;;;;;;;4998664;28;19950;-25
2022/03/08 05:56:02;;;;;;;;;;;;;;;;;;4997762;28;20349;-25
2022/03/08 05:58:28;;;;;;;;;;;;;;;;;;4998505;28;19914;-25
2022/03/08 06:00:58;;;;;;;;;;;;;;;;;;4998733;28;19938;-25
2022/03/08 06:03:25;;;;;;;;;;;;;;;;;;4997048;28;19985;-25
2022/03/08 06:05:51;;;;;;;;;;;;;;;;;;4998326;28;20012;-25
2022/03/08 06:08:17;;;;;;;;;;;;;;;;;;4997186;28;19972;-23
2022/03/08 06:10:44;;;;;;;;;;;;;;;;;;4997093;28;20001;-25
2022/03/08 06:13:10;;;;;;;;;;;;;;;;;;4998314;28;20009;-25
2022/03/08 06:15:38;;;;;;;;;;;;;;;;;;4996857;28;20353;-25
2022/03/08 06:18:06;;;;;;;;;;;;;;;;;;4998111;28;19918;-25
2022/03/08 06:20:32;;;;;;;;;;;;;;;;;;4998526;28;19914;-25
2022/03/08 06:22:58;;;;;;;;;;;;;;;;;;4997972;28;19913;-25
2022/03/08 06:25:26;;;;;;;;;;;;;;;;;;4998971;28;19941;-25
2022/03/08 06:27:52;;;;;;;;;;;;;;;;;;4997921;28;20265;-25
2022/03/08 06:30:18;;;;;;;;;;;;;;;;;;4998487;28;19921;-25
2022/03/08 06:32:47;;;;;;;;;;;;;;;;;;4998126;28;19914;-25
2022/03/08 06:35:13;;;;;;;;;;;;;;;;;;4997893;28;19914;-24
2022/03/08 06:37:40;;;;;;;;;;;;;;;;;;4997851;28;20388;-25
2022/03/08 06:40:07;;;;;;;;;;;;;;;;;;4997599;28;19924;-25
2022/03/08 06:42:34;;;;;;;;;;;;;;;;;;4980099;28;20380;-25
2022/03/08 06:45:00;;;;;;;;;;;;;;;;;;4997627;28;19968;-25
2022/03/08 06:47:27;;;;;;;;;;;;;;;;;;4979912;28;19914;-24
2022/03/08 06:49:53;;;;;;;;;;;;;;;;;;4979686;28;19969;-24
2022/03/08 06:52:21;;;;;;;;;;;;;;;;;;4997577;28;19922;-24
2022/03/08 06:54:47;;;;;;;;;;;;;;;;;;4997563;28;19980;-25
2022/03/08 06:57:13;;;;;;;;;;;;;;;;;;4997742;28;20313;-25
2022/03/08 06:59:41;;;;;;;;;;;;;;;;;;4997625;28;19921;-25
2022/03/08 07:02:07;;;;;;;;;;;;;;;;;;4997186;28;20012;-25
2022/03/08 07:04:35;;;;;;;;;;;;;;;;;;4997640;28;19910;-25
2022/03/08 07:07:04;;;;;;;;;;;;;;;;;;4997281;28;19914;-25
2022/03/08 07:09:30;;;;;;;;;;;;;;;;;;4997210;28;19933;-25
2022/03/08 07:11:58;;;;;;;;;;;;;;;;;;4996901;28;19914;-24
2022/03/08 07:14:26;;;;;;;;;;;;;;;;;;4996243;28;20013;-24
2022/03/08 07:16:52;;;;;;;;;;;;;;;;;;4978963;28;19914;-24
2022/03/08 07:19:18;;;;;;;;;;;;;;;;;;4996028;28;20008;-24
2022/03/08 07:21:47;;;;;;;;;;;;;;;;;;4978580;28;19958;-25
2022/03/08 07:24:14;;;;;;;;;;;;;;;;;;4996173;28;19909;-25
2022/03/08 07:26:40;;;;;;;;;;;;;;;;;;4978612;28;20380;-25
2022/03/08 07:29:08;;;;;;;;;;;;;;;;;;4978632;28;19963;-25
2022/03/08 07:31:34;;;;;;;;;;;;;;;;;;4996033;28;20353;-25
2022/03/08 07:34:01;;;;;;;;;;;;;;;;;;4996183;28;20068;-24
2022/03/08 07:36:27;;;;;;;;;;;;;;;;;;4995803;28;19972;-25
2022/03/08 07:38:53;;;;;;;;;;;;;;;;;;4996210;28;19937;-25
2022/03/08 07:41:21;;;;;;;;;;;;;;;;;;4996614;28;19920;-25
2022/03/08 07:43:48;;;;;;;;;;;;;;;;;;4979454;28;19953;-25
2022/03/08 07:46:16;;;;;;;;;;;;;;;;;;4996891;28;19914;-25
2022/03/08 07:48:44;;;;;;;;;;;;;;;;;;4996533;28;19960;-25
2022/03/08 07:51:10;;;;;;;;;;;;;;;;;;4996663;28;19914;-25
2022/03/08 07:53:36;;;;;;;;;;;;;;;;;;4996460;28;19910;-24
2022/03/08 07:56:05;;;;;;;;;;;;;;;;;;4996506;28;19914;-24
2022/03/08 07:58:37;;;;;;;;;;;;;;;;;;4996465;28;20349;-24
2022/03/08 08:01:06;;;;;;;;;;;;;;;;;;4995123;28;20364;-24
2022/03/08 08:03:38;;;;;;;;;;;;;;;;;;4996130;28;19922;-24
2022/03/08 08:06:13;;;;;;;;;;;;;;;;;;4978868;28;20391;-24
2022/03/08 08:08:39;;;;;;;;;;;;;;;;;;4978634;28;20001;-24
2022/03/08 08:11:06;;;;;;;;;;;;;;;;;;4996218;28;20369;-24
2022/03/08 08:13:32;;;;;;;;;;;;;;;;;;4996195;28;20229;-24
2022/03/08 08:16:09;;;;;;;;;;;;;;;;;;4978684;28;19925;-24
2022/03/08 08:18:36;;;;;;;;;;;;;;;;;;4978869;28;19910;-24
2022/03/08 08:21:05;;;;;;;;;;;;;;;;;;4995929;28;20305;-25
2022/03/08 08:23:33;;;;;;;;;;;;;;;;;;4995733;28;19914;-24
2022/03/08 08:26:01;;;;;;;;;;;;;;;;;;4977861;28;19910;-24
2022/03/08 08:28:28;;;;;;;;;;;;;;;;;;4995065;28;20024;-24
2022/03/08 08:30:54;;;;;;;;;;;;;;;;;;4995316;28;19916;-24
2022/03/08 08:33:22;;;;;;;;;;;;;;;;;;4995713;28;20016;-24
2022/03/08 08:35:48;;;;;;;;;;;;;;;;;;4995553;28;19910;-24
2022/03/08 08:38:15;;;;;;;;;;;;;;;;;;4995469;28;19914;-24
2022/03/08 08:40:42;;;;;;;;;;;;;;;;;;4994996;28;19997;-24
2022/03/08 08:43:08;;;;;;;;;;;;;;;;;;4977781;28;19918;-24
2022/03/08 08:45:34;;;;;;;;;;;;;;;;;;4995033;28;19918;-24
2022/03/08 08:48:02;;;;;;;;;;;;;;;;;;4994885;28;19922;-24
2022/03/08 08:50:35;;;;;;;;;;;;;;;;;;4977890;28;19913;-23
2022/03/08 08:55:56;;;;;;;;;;;;;;;;;;4995509;28;19972;-24
2022/03/08 08:58:22;;;;;;;;;;;;;;;;;;4978132;28;19914;-23
2022/03/08 09:00:48;;;;;;;;;;;;;;;;;;4995196;28;20256;-23
2022/03/08 09:03:16;;;;;;;;;;;;;;;;;;4994617;28;20236;-23
2022/03/08 09:05:43;;;;;;;;;;;;;;;;;;4994323;28;20344;-23
2022/03/08 09:08:09;;;;;;;;;;;;;;;;;;4994473;28;19918;-24
2022/03/08 09:10:35;;;;;;;;;;;;;;;;;;4994983;28;19953;-24
2022/03/08 09:13:01;;;;;;;;;;;;;;;;;;4994563;28;20329;-24
2022/03/08 09:15:28;;;;;;;;;;;;;;;;;;4994951;28;19928;-24
2022/03/08 09:20:45;;;;;;;;;;;;;;;;;;4994701;28;19944;-24
2022/03/08 09:23:11;;;;;;;;;;;;;;;;;;4994632;28;19914;-27
2022/03/08 09:25:39;;;;;;;;;;;;;;;;;;4994666;28;19918;-24
2022/03/08 09:28:06;;;;;;;;;;;;;;;;;;4994473;28;19953;-24
2022/03/08 09:41:57;;;;;;;;;;;;;;;;;;4994153;28;20285;-24
2022/03/08 09:47:14;;;;;;;;;;;;;;;;;;4993834;28;20376;-24
2022/03/08 10:09:03;;;;;;;;;;;;;;;;;;3539168;28;22617;-24
2022/03/08 10:14:05;;;;;;;;;;;;;;;;;;5045577;23;20016;-24
2022/03/08 10:16:52;;;;;;;;;;;;;;;;;;4993927;28;19924;-25
2022/03/08 10:19:18;;;;;;;;;;;;;;;;;;4976860;28;19910;-25
2022/03/08 10:24:33;;;;;;;;;;;;;;;;;;4977326;28;19937;-25
2022/03/08 10:26:59;;;;;;;;;;;;;;;;;;4977997;28;19918;-25
2022/03/08 10:29:25;;;;;;;;;;;;;;;;;;4978756;28;19922;-25
2022/03/08 10:31:54;;;;;;;;;;;;;;;;;;4978368;28;20000;-25
2022/03/08 10:34:21;;;;;;;;;;;;;;;;;;4961104;28;20009;-25
2022/03/08 10:36:47;;;;;;;;;;;;;;;;;;4978334;28;19942;-25
2022/03/08 10:41:57;;;;;;;;;;;;;;;;;;4978413;28;20389;-25
2022/03/08 10:44:23;;;;;;;;;;;;;;;;;;4978014;28;19914;-25
2022/03/08 10:46:50;;;;;;;;;;;;;;;;;;4960990;28;19925;-25
2022/03/08 10:49:18;;;;;;;;;;;;;;;;;;4977818;28;19914;-25
2022/03/08 10:51:45;;;;;;;;;;;;;;;;;;4978066;28;19925;-25
2022/03/08 10:57:03;;;;;;;;;;;;;;;;;;4978112;28;19925;-25
2022/03/08 10:59:31;;;;;;;;;;;;;;;;;;4977961;28;19918;-25
2022/03/08 11:01:59;;;;;;;;;;;;;;;;;;4977717;28;19914;-26
2022/03/08 11:04:25;;;;;;;;;;;;;;;;;;4977632;28;19910;-23
2022/03/08 11:06:52;;;;;;;;;;;;;;;;;;4977686;28;20260;-26
2022/03/08 11:09:19;;;;;;;;;;;;;;;;;;4960298;28;19928;-26
2022/03/08 11:11:45;;;;;;;;;;;;;;;;;;4961009;28;19988;-23
2022/03/08 11:14:13;;;;;;;;;;;;;;;;;;4987377;28;19932;-24
2022/03/08 11:16:39;;;;;;;;;;;;;;;;;;4996806;28;19918;-23
2022/03/08 11:19:05;;;;;;;;;;;;;;;;;;4997196;28;19921;-23
2022/03/08 11:21:33;;;;;;;;;;;;;;;;;;4996750;28;19914;-24
2022/03/08 11:23:59;;;;;;;;;;;;;;;;;;4996792;28;19913;-25
2022/03/08 11:26:25;;;;;;;;;;;;;;;;;;4980161;28;20359;-26
2022/03/08 11:28:52;;;;;;;;;;;;;;;;;;4996728;28;19925;-26
2022/03/08 11:31:18;;;;;;;;;;;;;;;;;;4996410;28;20019;-26
2022/03/08 11:33:44;;;;;;;;;;;;;;;;;;4996250;28;19917;-26
2022/03/08 11:36:10;;;;;;;;;;;;;;;;;;4996116;28;20374;-24
2022/03/08 11:38:37;;;;;;;;;;;;;;;;;;4979098;28;20001;-25
2022/03/08 11:41:03;;;;;;;;;;;;;;;;;;4996576;28;19957;-24
2022/03/08 11:43:31;;;;;;;;;;;;;;;;;;4996094;28;19999;-25
2022/03/08 11:45:59;;;;;;;;;;;;;;;;;;4978994;28;19914;-24
2022/03/08 11:48:29;;;;;;;;;;;;;;;;;;4995966;28;19917;-25
2022/03/08 11:50:58;;;;;;;;;;;;;;;;;;4996336;28;19984;-25
2022/03/08 11:53:29;;;;;;;;;;;;;;;;;;4995727;28;20198;-25
2022/03/08 11:55:58;;;;;;;;;;;;;;;;;;4996120;28;19949;-24
2022/03/08 12:01:20;;;;;;;;;;;;;;;;;;4995772;28;20020;-25
2022/03/08 12:06:37;;;;;;;;;;;;;;;;;;4995411;28;20041;-25
2022/03/08 12:09:07;;;;;;;;;;;;;;;;;;4995302;28;19918;-24
2022/03/08 12:11:34;;;;;;;;;;;;;;;;;;4995496;28;20305;-25
2022/03/08 12:14:00;;;;;;;;;;;;;;;;;;4995008;28;19922;-25
2022/03/08 12:16:26;;;;;;;;;;;;;;;;;;4977868;28;20317;-24
2022/03/08 12:18:56;;;;;;;;;;;;;;;;;;4995428;28;19918;-25
2022/03/08 12:26:59;;;;;;;;;;;;;;;;;;4995682;28;20005;-25
2022/03/08 12:29:25;;;;;;;;;;;;;;;;;;4995687;28;19972;-25
2022/03/08 12:31:53;;;;;;;;;;;;;;;;;;4995845;28;20347;-25
2022/03/08 12:34:19;;;;;;;;;;;;;;;;;;4995707;28;19914;-25
2022/03/08 12:36:45;;;;;;;;;;;;;;;;;;4978376;28;20405;-25
2022/03/08 12:39:11;;;;;;;;;;;;;;;;;;4978134;28;19909;-25
2022/03/08 12:41:37;;;;;;;;;;;;;;;;;;4995494;28;20248;-25
2022/03/08 12:44:04;;;;;;;;;;;;;;;;;;4995243;28;20229;-25
2022/03/08 12:46:30;;;;;;;;;;;;;;;;;;4994976;28;20229;-25
2022/03/08 12:48:58;;;;;;;;;;;;;;;;;;4995523;28;19964;-25
2022/03/08 12:51:24;;;;;;;;;;;;;;;;;;4995418;28;19984;-25
2022/03/08 12:53:53;;;;;;;;;;;;;;;;;;4995107;28;19948;-25
2022/03/08 12:56:22;;;;;;;;;;;;;;;;;;4995518;28;19951;-26
2022/03/08 12:58:50;;;;;;;;;;;;;;;;;;4995256;28;19932;-25
2022/03/08 13:01:19;;;;;;;;;;;;;;;;;;4978123;28;19914;-25
2022/03/08 13:03:45;;;;;;;;;;;;;;;;;;4994913;28;19920;-25
2022/03/08 13:06:11;;;;;;;;;;;;;;;;;;4994814;28;19936;-25
2022/03/08 13:08:39;;;;;;;;;;;;;;;;;;4995009;28;19914;-25
2022/03/08 13:11:06;;;;;;;;;;;;;;;;;;4995314;28;20008;-32
2022/03/08 13:13:33;;;;;;;;;;;;;;;;;;4994268;28;19918;-26
2022/03/08 13:16:02;;;;;;;;;;;;;;;;;;4994897;28;19917;-25
2022/03/08 13:18:28;;;;;;;;;;;;;;;;;;4994853;28;19914;-25
2022/03/08 13:20:54;;;;;;;;;;;;;;;;;;4994921;28;20310;-25
2022/03/08 13:23:21;;;;;;;;;;;;;;;;;;4977810;28;19993;-25
2022/03/08 13:25:47;;;;;;;;;;;;;;;;;;4995342;28;20260;-25
2022/03/08 13:28:16;;;;;;;;;;;;;;;;;;4994965;28;19917;-25
2022/03/08 13:30:43;;;;;;;;;;;;;;;;;;4995103;28;20263;-25
2022/03/08 13:33:09;;;;;;;;;;;;;;;;;;4994588;28;19925;-25
2022/03/08 13:35:37;;;;;;;;;;;;;;;;;;4994645;28;19960;-25
2022/03/08 13:38:03;;;;;;;;;;;;;;;;;;4994673;28;19925;-25
2022/03/08 13:40:29;;;;;;;;;;;;;;;;;;4994755;28;20314;-24
2022/03/08 13:42:57;;;;;;;;;;;;;;;;;;4994762;28;20000;-24
2022/03/08 13:45:23;;;;;;;;;;;;;;;;;;4994786;28;19921;-24
2022/03/08 13:47:52;;;;;;;;;;;;;;;;;;4977529;28;20420;-25
2022/03/08 13:50:21;;;;;;;;;;;;;;;;;;4994841;28;19917;-24
2022/03/08 13:52:49;;;;;;;;;;;;;;;;;;4994621;28;19914;-24
2022/03/08 13:55:15;;;;;;;;;;;;;;;;;;4994846;28;20252;-25
2022/03/08 13:57:42;;;;;;;;;;;;;;;;;;4995921;28;19914;-25
2022/03/08 14:00:08;;;;;;;;;;;;;;;;;;4998810;28;20320;-25
2022/03/08 14:02:34;;;;;;;;;;;;;;;;;;4981240;28;19972;-25
2022/03/08 14:07:52;;;;;;;;;;;;;;;;;;4998699;28;20379;-26
2022/03/08 14:10:20;;;;;;;;;;;;;;;;;;4998588;28;19918;-26
2022/03/08 14:12:47;;;;;;;;;;;;;;;;;;4998636;28;20276;-26
2022/03/08 14:15:13;;;;;;;;;;;;;;;;;;4998261;28;19941;-27
2022/03/08 14:17:39;;;;;;;;;;;;;;;;;;4998684;28;19914;-26
2022/03/08 14:20:05;;;;;;;;;;;;;;;;;;4998268;28;20316;-24
2022/03/08 14:22:31;;;;;;;;;;;;;;;;;;4997998;28;19909;-24
2022/03/08 14:24:58;;;;;;;;;;;;;;;;;;4998690;28;20084;-26
2022/03/08 14:27:24;;;;;;;;;;;;;;;;;;4997951;28;20352;-25
2022/03/08 14:29:51;;;;;;;;;;;;;;;;;;4998039;28;19921;-25
2022/03/08 14:32:17;;;;;;;;;;;;;;;;;;4997871;28;20257;-25
2022/03/08 14:34:43;;;;;;;;;;;;;;;;;;4998197;28;19996;-25
2022/03/08 14:37:10;;;;;;;;;;;;;;;;;;4998003;28;20296;-25
2022/03/08 14:39:38;;;;;;;;;;;;;;;;;;4997623;28;19922;-25
2022/03/08 14:42:04;;;;;;;;;;;;;;;;;;4997945;28;19918;-25
2022/03/08 14:44:30;;;;;;;;;;;;;;;;;;4997611;28;20237;-25
2022/03/08 14:46:57;;;;;;;;;;;;;;;;;;4997856;28;19910;-30
2022/03/08 14:49:23;;;;;;;;;;;;;;;;;;4997676;28;19926;-29
2022/03/08 14:51:49;;;;;;;;;;;;;;;;;;4997715;28;19979;-29
2022/03/08 14:54:15;;;;;;;;;;;;;;;;;;4997719;28;19940;-29
2022/03/08 14:56:41;;;;;;;;;;;;;;;;;;4980419;28;19914;-28
2022/03/08 14:59:08;;;;;;;;;;;;;;;;;;4997730;28;19965;-28
2022/03/08 15:01:34;;;;;;;;;;;;;;;;;;4997519;28;19918;-31
2022/03/08 15:04:00;;;;;;;;;;;;;;;;;;4997409;28;19910;-32
2022/03/08 15:06:27;;;;;;;;;;;;;;;;;;4997435;28;19914;-31
2022/03/08 15:08:53;;;;;;;;;;;;;;;;;;4996820;28;19945;-29
2022/03/08 15:11:19;;;;;;;;;;;;;;;;;;4997431;28;19918;-29
2022/03/08 15:13:46;;;;;;;;;;;;;;;;;;4997110;28;19997;-27
2022/03/08 15:16:12;;;;;;;;;;;;;;;;;;4997369;28;20356;-33
2022/03/08 15:18:39;;;;;;;;;;;;;;;;;;4996988;28;20008;-31
2022/03/08 15:21:05;;;;;;;;;;;;;;;;;;4997059;28;19940;-28
2022/03/08 15:23:32;;;;;;;;;;;;;;;;;;4980046;28;19914;-30
2022/03/08 15:25:58;;;;;;;;;;;;;;;;;;4997249;28;20395;-27
2022/03/08 15:28:25;;;;;;;;;;;;;;;;;;4996830;28;19980;-28
2022/03/08 15:30:51;;;;;;;;;;;;;;;;;;4996712;28;19914;-28
2022/03/08 15:33:17;;;;;;;;;;;;;;;;;;4996833;28;20248;-26
2022/03/08 15:35:43;;;;;;;;;;;;;;;;;;4997191;28;19997;-32
2022/03/08 15:38:10;;;;;;;;;;;;;;;;;;4996721;28;19986;-31
2022/03/08 15:40:36;;;;;;;;;;;;;;;;;;4996811;28;19914;-30
2022/03/08 15:43:02;;;;;;;;;;;;;;;;;;4996787;28;19925;-27
2022/03/08 15:45:29;;;;;;;;;;;;;;;;;;4996622;28;19921;-29
2022/03/08 15:47:56;;;;;;;;;;;;;;;;;;4996912;28;20304;-25
2022/03/08 15:50:22;;;;;;;;;;;;;;;;;;4997255;28;19914;-29
2022/03/08 15:52:48;;;;;;;;;;;;;;;;;;4996315;28;19914;-27
2022/03/08 15:55:14;;;;;;;;;;;;;;;;;;4996432;28;19914;-30
2022/03/08 15:57:41;;;;;;;;;;;;;;;;;;4996681;28;20005;-28
2022/03/08 16:00:08;;;;;;;;;;;;;;;;;;4996913;28;19921;-26
2022/03/08 16:02:34;;;;;;;;;;;;;;;;;;4996946;28;19965;-34
2022/03/08 16:05:00;;;;;;;;;;;;;;;;;;4979281;28;19914;-30
2022/03/08 16:07:26;;;;;;;;;;;;;;;;;;4996511;28;19916;-35
2022/03/08 16:09:52;;;;;;;;;;;;;;;;;;4996239;28;19914;-35
2022/03/08 16:12:18;;;;;;;;;;;;;;;;;;4995797;28;20341;-31
2022/03/08 16:14:44;;;;;;;;;;;;;;;;;;4995449;28;19926;-29
2022/03/08 16:17:10;;;;;;;;;;;;;;;;;;4995702;28;19910;-34
2022/03/08 16:19:36;;;;;;;;;;;;;;;;;;4995794;28;19913;-32
2022/03/08 16:22:02;;;;;;;;;;;;;;;;;;4994528;28;19920;-31
2022/03/08 16:24:28;;;;;;;;;;;;;;;;;;4995243;28;19922;-34
2022/03/08 16:26:54;;;;;;;;;;;;;;;;;;4978113;28;19909;-29
2022/03/08 16:29:20;;;;;;;;;;;;;;;;;;4995398;28;19944;-29
2022/03/08 16:31:46;;;;;;;;;;;;;;;;;;4995288;28;19964;-31
2022/03/08 16:34:12;;;;;;;;;;;;;;;;;;4977879;28;19914;-28
2022/03/08 16:36:38;;;;;;;;;;;;;;;;;;4995333;28;19920;-30
2022/03/08 16:39:07;;;;;;;;;;;;;;;;;;4978514;28;19914;-33
2022/03/08 16:41:33;;;;;;;;;;;;;;;;;;4995640;28;19914;-30
2022/03/08 16:43:59;;;;;;;;;;;;;;;;;;4995835;28;20411;-29
2022/03/08 16:46:25;;;;;;;;;;;;;;;;;;4995992;28;19913;-32
2022/03/08 16:48:51;;;;;;;;;;;;;;;;;;4995722;28;20301;-35
2022/03/08 16:51:17;;;;;;;;;;;;;;;;;;4995892;28;19937;-29
2022/03/08 16:53:43;;;;;;;;;;;;;;;;;;4995435;28;19916;-30
2022/03/08 16:56:09;;;;;;;;;;;;;;;;;;4995752;28;19922;-32
2022/03/08 16:58:35;;;;;;;;;;;;;;;;;;4995522;28;19968;-33
2022/03/08 17:01:01;;;;;;;;;;;;;;;;;;4995411;28;19914;-30
2022/03/08 17:03:27;;;;;;;;;;;;;;;;;;4995507;28;19913;-29
2022/03/08 17:05:53;;;;;;;;;;;;;;;;;;4995480;28;20256;-31
2022/03/08 17:08:19;;;;;;;;;;;;;;;;;;4995220;28;19932;-28
2022/03/08 17:10:45;;;;;;;;;;;;;;;;;;4995225;28;19921;-29
2022/03/08 17:13:11;;;;;;;;;;;;;;;;;;4995349;28;20253;-34
2022/03/08 17:15:37;;;;;;;;;;;;;;;;;;4995185;28;19929;-29
2022/03/08 17:18:04;;;;;;;;;;;;;;;;;;4994977;28;19914;-30
2022/03/08 17:20:30;;;;;;;;;;;;;;;;;;4994603;28;19921;-29
2022/03/08 17:22:56;;;;;;;;;;;;;;;;;;4994903;28;19914;-28
2022/03/08 17:25:22;;;;;;;;;;;;;;;;;;4995149;28;20301;-31
2022/03/08 17:27:50;;;;;;;;;;;;;;;;;;4995199;28;19918;-30
2022/03/08 17:30:16;;;;;;;;;;;;;;;;;;4995424;28;20364;-33
2022/03/08 17:32:43;;;;;;;;;;;;;;;;;;4997666;28;19921;-32
2022/03/08 17:35:16;;;;;;;;;;;;;;;;;;5001283;28;19918;-26
2022/03/08 17:37:44;;;;;;;;;;;;;;;;;;5001623;28;19921;-28
2022/03/08 17:40:11;;;;;;;;;;;;;;;;;;5002173;28;19909;-27
2022/03/08 17:42:38;;;;;;;;;;;;;;;;;;5001447;28;20295;-31
2022/03/08 17:45:04;;;;;;;;;;;;;;;;;;5001886;28;19910;-31
2022/03/08 17:47:30;;;;;;;;;;;;;;;;;;5001500;28;20075;-27